sensor_id;sensor_type;location;lat;lon;timestamp;temperature;humidity
10304;DHT22;5197;48.152;8.590;2024-03-22T00:01:49;8.30;4.00
10304;DHT22;5197;48.152;8.590;2024-03-22T00:04:16;8.30;4.00
10304;DHT22;5197;48.152;8.590;2024-03-22T00:06:43;8.30;4.10
10304;DHT22;5197;48.152;8.590;2024-03-22T00:09:10;8.30;4.20
10304;DHT22;5197;48.152;8.590;2024-03-22T00:11:36;8.20;4.20
10304;DHT22;5197;48.152;8.590;2024-03-22T00:14:03;8.20;4.40
10304;DHT22;5197;48.152;8.590;2024-03-22T00:16:29;8.30;4.30
10304;DHT22;5197;48.152;8.590;2024-03-22T00:18:55;8.20;4.30
10304;DHT22;5197;48.152;8.590;2024-03-22T00:21:22;8.20;4.20
10304;DHT22;5197;48.152;8.590;2024-03-22T00:23:48;8.20;4.10
10304;DHT22;5197;48.152;8.590;2024-03-22T00:26:17;8.20;4.20
10304;DHT22;5197;48.152;8.590;2024-03-22T00:28:42;8.10;4.40
10304;DHT22;5197;48.152;8.590;2024-03-22T00:31:09;8.10;4.40
10304;DHT22;5197;48.152;8.590;2024-03-22T00:33:35;8.40;4.60
10304;DHT22;5197;48.152;8.590;2024-03-22T00:36:01;8.00;4.60
10304;DHT22;5197;48.152;8.590;2024-03-22T00:38:27;8.00;4.70
10304;DHT22;5197;48.152;8.590;2024-03-22T00:40:53;7.90;6.00
10304;DHT22;5197;48.152;8.590;2024-03-22T00:43:20;7.90;5.00
10304;DHT22;5197;48.152;8.590;2024-03-22T00:45:46;7.90;5.10
10304;DHT22;5197;48.152;8.590;2024-03-22T00:48:12;7.90;5.20
10304;DHT22;5197;48.152;8.590;2024-03-22T00:50:38;7.80;5.30
10304;DHT22;5197;48.152;8.590;2024-03-22T00:53:04;7.70;5.30
10304;DHT22;5197;48.152;8.590;2024-03-22T00:55:31;7.80;5.40
10304;DHT22;5197;48.152;8.590;2024-03-22T00:57:57;9.60;6.60
10304;DHT22;5197;48.152;8.590;2024-03-22T01:00:23;7.80;5.60
10304;DHT22;5197;48.152;8.590;2024-03-22T01:02:50;7.70;5.50
10304;DHT22;5197;48.152;8.590;2024-03-22T01:05:17;7.70;5.80
10304;DHT22;5197;48.152;8.590;2024-03-22T01:07:43;7.70;6.10
10304;DHT22;5197;48.152;8.590;2024-03-22T01:10:10;7.60;6.40
10304;DHT22;5197;48.152;8.590;2024-03-22T01:12:36;7.70;6.50
10304;DHT22;5197;48.152;8.590;2024-03-22T01:15:02;7.70;6.70
10304;DHT22;5197;48.152;8.590;2024-03-22T01:17:29;7.70;6.60
10304;DHT22;5197;48.152;8.590;2024-03-22T01:19:54;7.70;6.70
10304;DHT22;5197;48.152;8.590;2024-03-22T01:22:20;7.60;6.70
10304;DHT22;5197;48.152;8.590;2024-03-22T01:24:46;7.60;6.80
10304;DHT22;5197;48.152;8.590;2024-03-22T01:27:37;7.60;6.70
10304;DHT22;5197;48.152;8.590;2024-03-22T01:30:28;7.60;6.60
10304;DHT22;5197;48.152;8.590;2024-03-22T01:32:55;7.60;6.60
10304;DHT22;5197;48.152;8.590;2024-03-22T01:35:21;7.40;6.70
10304;DHT22;5197;48.152;8.590;2024-03-22T01:37:47;7.40;6.70
10304;DHT22;5197;48.152;8.590;2024-03-22T01:40:14;7.50;6.90
10304;DHT22;5197;48.152;8.590;2024-03-22T01:42:40;7.40;6.70
10304;DHT22;5197;48.152;8.590;2024-03-22T01:45:06;7.30;6.90
10304;DHT22;5197;48.152;8.590;2024-03-22T01:47:32;7.30;7.10
10304;DHT22;5197;48.152;8.590;2024-03-22T01:49:58;7.30;7.00
10304;DHT22;5197;48.152;8.590;2024-03-22T01:52:25;7.30;7.20
10304;DHT22;5197;48.152;8.590;2024-03-22T01:54:51;7.20;7.00
10304;DHT22;5197;48.152;8.590;2024-03-22T01:57:17;7.20;7.10
10304;DHT22;5197;48.152;8.590;2024-03-22T01:59:43;5.50;6.10
10304;DHT22;5197;48.152;8.590;2024-03-22T02:02:09;7.10;7.20
10304;DHT22;5197;48.152;8.590;2024-03-22T02:04:37;7.10;7.50
10304;DHT22;5197;48.152;8.590;2024-03-22T02:07:02;7.10;7.70
10304;DHT22;5197;48.152;8.590;2024-03-22T02:09:29;7.10;7.80
10304;DHT22;5197;48.152;8.590;2024-03-22T02:11:55;7.10;7.90
10304;DHT22;5197;48.152;8.590;2024-03-22T02:14:21;7.00;7.80
10304;DHT22;5197;48.152;8.590;2024-03-22T02:16:47;7.00;7.90
10304;DHT22;5197;48.152;8.590;2024-03-22T02:19:13;7.00;8.00
10304;DHT22;5197;48.152;8.590;2024-03-22T02:21:38;7.00;7.90
10304;DHT22;5197;48.152;8.590;2024-03-22T02:24:05;6.90;7.90
10304;DHT22;5197;48.152;8.590;2024-03-22T02:26:31;6.90;8.10
10304;DHT22;5197;48.152;8.590;2024-03-22T02:28:56;6.80;8.10
10304;DHT22;5197;48.152;8.590;2024-03-22T02:31:22;6.70;8.20
10304;DHT22;5197;48.152;8.590;2024-03-22T02:33:49;6.70;8.10
10304;DHT22;5197;48.152;8.590;2024-03-22T02:36:15;6.60;8.00
10304;DHT22;5197;48.152;8.590;2024-03-22T02:38:41;6.60;8.20
10304;DHT22;5197;48.152;8.590;2024-03-22T02:41:07;6.50;8.40
10304;DHT22;5197;48.152;8.590;2024-03-22T02:43:34;6.60;8.40
10304;DHT22;5197;48.152;8.590;2024-03-22T02:45:59;6.60;8.40
10304;DHT22;5197;48.152;8.590;2024-03-22T02:48:25;6.60;8.50
10304;DHT22;5197;48.152;8.590;2024-03-22T02:50:55;6.60;8.60
10304;DHT22;5197;48.152;8.590;2024-03-22T02:53:21;6.60;8.60
10304;DHT22;5197;48.152;8.590;2024-03-22T02:55:47;6.60;8.90
10304;DHT22;5197;48.152;8.590;2024-03-22T02:58:14;6.60;8.90
10304;DHT22;5197;48.152;8.590;2024-03-22T03:00:40;6.50;8.80
10304;DHT22;5197;48.152;8.590;2024-03-22T03:03:06;6.60;8.90
10304;DHT22;5197;48.152;8.590;2024-03-22T03:05:33;6.60;9.00
10304;DHT22;5197;48.152;8.590;2024-03-22T03:07:59;6.50;9.00
10304;DHT22;5197;48.152;8.590;2024-03-22T03:10:24;6.60;9.30
10304;DHT22;5197;48.152;8.590;2024-03-22T03:12:51;6.60;9.30
10304;DHT22;5197;48.152;8.590;2024-03-22T03:15:17;6.60;9.50
10304;DHT22;5197;48.152;8.590;2024-03-22T03:17:44;6.60;9.50
10304;DHT22;5197;48.152;8.590;2024-03-22T03:20:11;6.60;9.70
10304;DHT22;5197;48.152;8.590;2024-03-22T03:22:42;6.60;9.60
10304;DHT22;5197;48.152;8.590;2024-03-22T03:25:08;6.50;9.60
10304;DHT22;5197;48.152;8.590;2024-03-22T03:30:01;6.60;9.00
10304;DHT22;5197;48.152;8.590;2024-03-22T03:32:28;6.40;9.90
10304;DHT22;5197;48.152;8.590;2024-03-22T03:34:54;6.60;10.20
10304;DHT22;5197;48.152;8.590;2024-03-22T03:37:20;6.50;10.20
10304;DHT22;5197;48.152;8.590;2024-03-22T03:39:46;7.10;10.90
10304;DHT22;5197;48.152;8.590;2024-03-22T03:42:12;6.60;10.40
10304;DHT22;5197;48.152;8.590;2024-03-22T03:44:38;6.50;10.50
10304;DHT22;5197;48.152;8.590;2024-03-22T03:47:04;6.50;10.60
10304;DHT22;5197;48.152;8.590;2024-03-22T03:49:29;6.60;11.00
10304;DHT22;5197;48.152;8.590;2024-03-22T03:51:55;6.50;11.10
10304;DHT22;5197;48.152;8.590;2024-03-22T03:54:21;6.60;11.30
10304;DHT22;5197;48.152;8.590;2024-03-22T03:56:47;6.60;11.50
10304;DHT22;5197;48.152;8.590;2024-03-22T03:59:13;6.60;11.60
10304;DHT22;5197;48.152;8.590;2024-03-22T04:01:41;6.60;11.60
10304;DHT22;5197;48.152;8.590;2024-03-22T04:04:07;6.70;11.70
10304;DHT22;5197;48.152;8.590;2024-03-22T04:06:33;6.70;11.60
10304;DHT22;5197;48.152;8.590;2024-03-22T04:09:00;6.70;11.70
10304;DHT22;5197;48.152;8.590;2024-03-22T04:11:26;6.70;11.80
10304;DHT22;5197;48.152;8.590;2024-03-22T04:13:52;6.70;11.70
10304;DHT22;5197;48.152;8.590;2024-03-22T04:16:18;6.70;11.80
10304;DHT22;5197;48.152;8.590;2024-03-22T04:18:46;6.60;11.80
10304;DHT22;5197;48.152;8.590;2024-03-22T04:21:12;6.70;12.00
10304;DHT22;5197;48.152;8.590;2024-03-22T04:23:38;6.70;12.10
10304;DHT22;5197;48.152;8.590;2024-03-22T04:26:03;6.70;12.40
10304;DHT22;5197;48.152;8.590;2024-03-22T04:28:30;6.70;12.10
10304;DHT22;5197;48.152;8.590;2024-03-22T04:33:27;6.90;12.60
10304;DHT22;5197;48.152;8.590;2024-03-22T04:35:54;6.70;12.40
10304;DHT22;5197;48.152;8.590;2024-03-22T04:38:20;6.70;12.40
10304;DHT22;5197;48.152;8.590;2024-03-22T04:40:45;6.80;12.50
10304;DHT22;5197;48.152;8.590;2024-03-22T04:43:11;6.80;12.70
10304;DHT22;5197;48.152;8.590;2024-03-22T04:45:37;6.80;12.60
10304;DHT22;5197;48.152;8.590;2024-03-22T04:48:04;6.80;12.70
10304;DHT22;5197;48.152;8.590;2024-03-22T04:50:30;6.90;12.80
10304;DHT22;5197;48.152;8.590;2024-03-22T04:53:00;6.80;12.70
10304;DHT22;5197;48.152;8.590;2024-03-22T04:55:26;6.80;12.80
10304;DHT22;5197;48.152;8.590;2024-03-22T04:57:52;6.80;12.80
10304;DHT22;5197;48.152;8.590;2024-03-22T05:00:18;6.90;12.80
10304;DHT22;5197;48.152;8.590;2024-03-22T05:02:45;6.90;12.80
10304;DHT22;5197;48.152;8.590;2024-03-22T05:05:12;6.90;12.90
10304;DHT22;5197;48.152;8.590;2024-03-22T05:07:38;6.90;12.90
10304;DHT22;5197;48.152;8.590;2024-03-22T05:10:04;6.90;13.10
10304;DHT22;5197;48.152;8.590;2024-03-22T05:12:30;6.90;13.10
10304;DHT22;5197;48.152;8.590;2024-03-22T05:14:56;6.90;13.20
10304;DHT22;5197;48.152;8.590;2024-03-22T05:17:21;6.90;13.10
10304;DHT22;5197;48.152;8.590;2024-03-22T05:19:48;6.90;13.10
10304;DHT22;5197;48.152;8.590;2024-03-22T05:22:15;6.90;13.30
10304;DHT22;5197;48.152;8.590;2024-03-22T05:24:41;6.90;13.20
10304;DHT22;5197;48.152;8.590;2024-03-22T05:27:07;6.90;13.40
10304;DHT22;5197;48.152;8.590;2024-03-22T05:29:33;7.00;13.20
10304;DHT22;5197;48.152;8.590;2024-03-22T05:31:59;6.90;13.20
10304;DHT22;5197;48.152;8.590;2024-03-22T05:34:26;7.00;13.30
10304;DHT22;5197;48.152;8.590;2024-03-22T05:36:55;7.00;13.40
10304;DHT22;5197;48.152;8.590;2024-03-22T05:39:21;7.00;13.30
10304;DHT22;5197;48.152;8.590;2024-03-22T05:41:47;7.00;13.30
10304;DHT22;5197;48.152;8.590;2024-03-22T05:44:12;6.90;13.30
10304;DHT22;5197;48.152;8.590;2024-03-22T05:46:38;6.90;13.10
10304;DHT22;5197;48.152;8.590;2024-03-22T05:49:04;6.90;13.10
10304;DHT22;5197;48.152;8.590;2024-03-22T05:51:30;6.80;13.10
10304;DHT22;5197;48.152;8.590;2024-03-22T05:53:56;6.90;13.30
10304;DHT22;5197;48.152;8.590;2024-03-22T05:56:22;6.90;13.30
10304;DHT22;5197;48.152;8.590;2024-03-22T05:58:48;6.90;13.40
10304;DHT22;5197;48.152;8.590;2024-03-22T06:01:14;6.90;13.40
10304;DHT22;5197;48.152;8.590;2024-03-22T06:03:40;6.20;13.30
10304;DHT22;5197;48.152;8.590;2024-03-22T06:06:06;6.80;13.80
10304;DHT22;5197;48.152;8.590;2024-03-22T06:08:32;7.60;14.40
10304;DHT22;5197;48.152;8.590;2024-03-22T06:11:00;6.90;14.20
10304;DHT22;5197;48.152;8.590;2024-03-22T06:13:26;6.90;14.20
10304;DHT22;5197;48.152;8.590;2024-03-22T06:15:53;8.20;15.30
10304;DHT22;5197;48.152;8.590;2024-03-22T06:18:18;7.00;15.60
10304;DHT22;5197;48.152;8.590;2024-03-22T06:20:44;7.10;14.60
10304;DHT22;5197;48.152;8.590;2024-03-22T06:23:10;7.10;14.60
10304;DHT22;5197;48.152;8.590;2024-03-22T06:25:36;7.20;14.70
10304;DHT22;5197;48.152;8.590;2024-03-22T06:28:03;7.30;14.80
10304;DHT22;5197;48.152;8.590;2024-03-22T06:30:29;7.40;14.90
10304;DHT22;5197;48.152;8.590;2024-03-22T06:32:54;7.40;15.00
10304;DHT22;5197;48.152;8.590;2024-03-22T06:35:21;7.50;14.90
10304;DHT22;5197;48.152;8.590;2024-03-22T06:37:47;7.50;15.00
10304;DHT22;5197;48.152;8.590;2024-03-22T06:40:15;7.60;15.00
10304;DHT22;5197;48.152;8.590;2024-03-22T06:42:41;7.80;15.20
10304;DHT22;5197;48.152;8.590;2024-03-22T06:45:07;7.80;15.40
10304;DHT22;5197;48.152;8.590;2024-03-22T06:47:33;8.10;15.90
10304;DHT22;5197;48.152;8.590;2024-03-22T06:49:59;8.30;17.30
10304;DHT22;5197;48.152;8.590;2024-03-22T06:52:25;8.60;18.80
10304;DHT22;5197;48.152;8.590;2024-03-22T06:54:51;10.50;21.10
10304;DHT22;5197;48.152;8.590;2024-03-22T06:57:18;10.70;21.20
10304;DHT22;5197;48.152;8.590;2024-03-22T06:59:44;9.90;20.60
10304;DHT22;5197;48.152;8.590;2024-03-22T07:02:10;10.30;19.20
10304;DHT22;5197;48.152;8.590;2024-03-22T07:04:37;10.90;17.70
10304;DHT22;5197;48.152;8.590;2024-03-22T07:07:03;12.00;16.90
10304;DHT22;5197;48.152;8.590;2024-03-22T07:09:29;11.80;14.90
10304;DHT22;5197;48.152;8.590;2024-03-22T07:11:56;12.10;13.00
10304;DHT22;5197;48.152;8.590;2024-03-22T07:14:22;12.50;11.50
10304;DHT22;5197;48.152;8.590;2024-03-22T07:16:50;14.20;10.00
10304;DHT22;5197;48.152;8.590;2024-03-22T07:19:18;13.40;7.60
10304;DHT22;5197;48.152;8.590;2024-03-22T07:21:43;15.80;7.50
10304;DHT22;5197;48.152;8.590;2024-03-22T07:24:09;15.10;5.20
10304;DHT22;5197;48.152;8.590;2024-03-22T07:26:35;16.30;3.80
10304;DHT22;5197;48.152;8.590;2024-03-22T07:29:01;14.80;1.00
10304;DHT22;5197;48.152;8.590;2024-03-22T07:31:28;14.90;1.00
10304;DHT22;5197;48.152;8.590;2024-03-22T07:33:54;15.20;1.30
10304;DHT22;5197;48.152;8.590;2024-03-22T07:36:21;17.00;1.00
10304;DHT22;5197;48.152;8.590;2024-03-22T07:38:47;17.50;1.00
10304;DHT22;5197;48.152;8.590;2024-03-22T07:41:14;16.80;1.00
10304;DHT22;5197;48.152;8.590;2024-03-22T07:43:40;16.60;1.00
10304;DHT22;5197;48.152;8.590;2024-03-22T07:46:06;16.40;1.00
10304;DHT22;5197;48.152;8.590;2024-03-22T07:48:32;18.70;1.00
10304;DHT22;5197;48.152;8.590;2024-03-22T07:50:59;17.30;1.00
10304;DHT22;5197;48.152;8.590;2024-03-22T07:53:25;17.40;1.00
10304;DHT22;5197;48.152;8.590;2024-03-22T07:55:51;18.50;1.00
10304;DHT22;5197;48.152;8.590;2024-03-22T07:58:17;18.20;1.00
10304;DHT22;5197;48.152;8.590;2024-03-22T08:00:43;18.30;1.00
10304;DHT22;5197;48.152;8.590;2024-03-22T08:03:14;18.40;1.00
10304;DHT22;5197;48.152;8.590;2024-03-22T08:05:40;18.70;1.00
10304;DHT22;5197;48.152;8.590;2024-03-22T08:08:06;18.40;1.00
10304;DHT22;5197;48.152;8.590;2024-03-22T08:10:32;18.20;1.00
10304;DHT22;5197;48.152;8.590;2024-03-22T08:12:59;18.00;1.00
10304;DHT22;5197;48.152;8.590;2024-03-22T08:15:26;18.00;1.00
10304;DHT22;5197;48.152;8.590;2024-03-22T08:17:53;17.80;1.00
10304;DHT22;5197;48.152;8.590;2024-03-22T08:20:19;17.50;1.00
10304;DHT22;5197;48.152;8.590;2024-03-22T08:22:45;17.20;1.00
10304;DHT22;5197;48.152;8.590;2024-03-22T08:25:11;17.60;1.00
10304;DHT22;5197;48.152;8.590;2024-03-22T08:27:38;17.70;1.00
10304;DHT22;5197;48.152;8.590;2024-03-22T08:30:04;17.70;1.00
10304;DHT22;5197;48.152;8.590;2024-03-22T08:32:31;17.60;1.00
10304;DHT22;5197;48.152;8.590;2024-03-22T08:34:57;19.50;1.00
10304;DHT22;5197;48.152;8.590;2024-03-22T08:37:23;17.90;1.00
10304;DHT22;5197;48.152;8.590;2024-03-22T08:39:49;18.50;1.00
10304;DHT22;5197;48.152;8.590;2024-03-22T08:42:15;20.20;1.00
10304;DHT22;5197;48.152;8.590;2024-03-22T08:44:41;19.60;1.00
10304;DHT22;5197;48.152;8.590;2024-03-22T08:47:10;20.30;1.00
10304;DHT22;5197;48.152;8.590;2024-03-22T08:49:36;20.30;1.00
10304;DHT22;5197;48.152;8.590;2024-03-22T08:52:02;20.40;1.00
10304;DHT22;5197;48.152;8.590;2024-03-22T08:54:28;20.50;1.00
10304;DHT22;5197;48.152;8.590;2024-03-22T08:56:54;21.10;1.00
10304;DHT22;5197;48.152;8.590;2024-03-22T08:59:20;20.70;1.00
10304;DHT22;5197;48.152;8.590;2024-03-22T09:01:45;20.10;1.00
10304;DHT22;5197;48.152;8.590;2024-03-22T09:04:13;19.90;1.00
10304;DHT22;5197;48.152;8.590;2024-03-22T09:06:41;19.60;1.00
10304;DHT22;5197;48.152;8.590;2024-03-22T09:09:07;19.10;1.00
10304;DHT22;5197;48.152;8.590;2024-03-22T09:11:33;18.40;1.00
10304;DHT22;5197;48.152;8.590;2024-03-22T09:13:59;17.70;1.00
10304;DHT22;5197;48.152;8.590;2024-03-22T09:16:25;18.20;1.00
10304;DHT22;5197;48.152;8.590;2024-03-22T09:18:51;17.10;1.00
10304;DHT22;5197;48.152;8.590;2024-03-22T09:21:21;16.80;1.00
10304;DHT22;5197;48.152;8.590;2024-03-22T09:23:47;17.00;1.00
10304;DHT22;5197;48.152;8.590;2024-03-22T09:26:13;17.80;1.00
10304;DHT22;5197;48.152;8.590;2024-03-22T09:28:40;16.80;1.00
10304;DHT22;5197;48.152;8.590;2024-03-22T09:31:06;16.20;1.00
10304;DHT22;5197;48.152;8.590;2024-03-22T09:33:35;17.40;1.00
10304;DHT22;5197;48.152;8.590;2024-03-22T09:36:02;16.10;1.00
10304;DHT22;5197;48.152;8.590;2024-03-22T09:38:28;15.80;1.00
10304;DHT22;5197;48.152;8.590;2024-03-22T09:40:55;17.70;1.00
10304;DHT22;5197;48.152;8.590;2024-03-22T09:43:21;15.90;1.00
10304;DHT22;5197;48.152;8.590;2024-03-22T09:45:50;15.80;1.00
10304;DHT22;5197;48.152;8.590;2024-03-22T09:48:18;16.40;1.00
10304;DHT22;5197;48.152;8.590;2024-03-22T09:50:46;15.50;1.00
10304;DHT22;5197;48.152;8.590;2024-03-22T09:53:19;16.20;1.00
10304;DHT22;5197;48.152;8.590;2024-03-22T09:55:46;15.80;1.00
10304;DHT22;5197;48.152;8.590;2024-03-22T09:58:13;16.50;1.00
10304;DHT22;5197;48.152;8.590;2024-03-22T10:00:39;16.20;1.00
10304;DHT22;5197;48.152;8.590;2024-03-22T10:03:06;16.30;1.00
10304;DHT22;5197;48.152;8.590;2024-03-22T10:05:33;15.80;1.00
10304;DHT22;5197;48.152;8.590;2024-03-22T10:07:59;15.50;1.00
10304;DHT22;5197;48.152;8.590;2024-03-22T10:10:25;16.30;1.00
10304;DHT22;5197;48.152;8.590;2024-03-22T10:12:51;16.30;1.00
10304;DHT22;5197;48.152;8.590;2024-03-22T10:15:19;16.30;1.00
10304;DHT22;5197;48.152;8.590;2024-03-22T10:17:45;16.00;1.00
10304;DHT22;5197;48.152;8.590;2024-03-22T10:20:14;15.10;1.00
10304;DHT22;5197;48.152;8.590;2024-03-22T10:22:56;15.10;1.00
10304;DHT22;5197;48.152;8.590;2024-03-22T10:25:50;15.20;1.00
10304;DHT22;5197;48.152;8.590;2024-03-22T10:28:16;15.40;1.00
10304;DHT22;5197;48.152;8.590;2024-03-22T10:30:43;15.50;1.00
10304;DHT22;5197;48.152;8.590;2024-03-22T10:33:10;17.80;1.00
10304;DHT22;5197;48.152;8.590;2024-03-22T10:35:36;17.50;1.00
10304;DHT22;5197;48.152;8.590;2024-03-22T10:38:03;15.90;1.00
10304;DHT22;5197;48.152;8.590;2024-03-22T10:40:29;16.00;1.00
10304;DHT22;5197;48.152;8.590;2024-03-22T10:42:56;16.20;1.00
10304;DHT22;5197;48.152;8.590;2024-03-22T10:45:22;17.60;1.00
10304;DHT22;5197;48.152;8.590;2024-03-22T10:47:53;18.00;1.00
10304;DHT22;5197;48.152;8.590;2024-03-22T10:50:22;18.00;1.00
10304;DHT22;5197;48.152;8.590;2024-03-22T10:52:59;16.90;1.00
10304;DHT22;5197;48.152;8.590;2024-03-22T10:55:53;15.80;1.00
10304;DHT22;5197;48.152;8.590;2024-03-22T10:58:22;15.90;1.00
10304;DHT22;5197;48.152;8.590;2024-03-22T11:00:52;16.00;1.00
10304;DHT22;5197;48.152;8.590;2024-03-22T11:03:24;16.00;1.00
10304;DHT22;5197;48.152;8.590;2024-03-22T11:05:57;16.00;1.00
10304;DHT22;5197;48.152;8.590;2024-03-22T11:08:27;16.80;1.00
10304;DHT22;5197;48.152;8.590;2024-03-22T11:10:54;16.10;1.00
10304;DHT22;5197;48.152;8.590;2024-03-22T11:13:20;16.70;1.00
10304;DHT22;5197;48.152;8.590;2024-03-22T11:15:49;18.30;1.00
10304;DHT22;5197;48.152;8.590;2024-03-22T11:18:16;16.40;1.00
10304;DHT22;5197;48.152;8.590;2024-03-22T11:20:43;16.70;1.00
10304;DHT22;5197;48.152;8.590;2024-03-22T11:23:10;17.50;1.00
10304;DHT22;5197;48.152;8.590;2024-03-22T11:25:37;16.60;1.00
10304;DHT22;5197;48.152;8.590;2024-03-22T11:28:03;17.80;1.00
10304;DHT22;5197;48.152;8.590;2024-03-22T11:30:29;16.20;1.00
10304;DHT22;5197;48.152;8.590;2024-03-22T11:32:56;16.90;1.00
10304;DHT22;5197;48.152;8.590;2024-03-22T11:35:22;17.00;1.00
10304;DHT22;5197;48.152;8.590;2024-03-22T11:37:50;16.90;1.00
10304;DHT22;5197;48.152;8.590;2024-03-22T11:40:16;16.80;1.00
10304;DHT22;5197;48.152;8.590;2024-03-22T11:42:49;17.40;1.00
10304;DHT22;5197;48.152;8.590;2024-03-22T11:45:17;16.80;1.00
10304;DHT22;5197;48.152;8.590;2024-03-22T11:47:47;16.80;1.00
10304;DHT22;5197;48.152;8.590;2024-03-22T11:50:13;17.00;1.00
10304;DHT22;5197;48.152;8.590;2024-03-22T11:52:43;17.80;1.00
10304;DHT22;5197;48.152;8.590;2024-03-22T11:55:13;16.90;1.00
10304;DHT22;5197;48.152;8.590;2024-03-22T11:57:39;17.10;1.00
10304;DHT22;5197;48.152;8.590;2024-03-22T12:00:06;17.90;1.00
10304;DHT22;5197;48.152;8.590;2024-03-22T12:02:38;17.20;1.00
10304;DHT22;5197;48.152;8.590;2024-03-22T12:05:05;17.90;1.00
10304;DHT22;5197;48.152;8.590;2024-03-22T12:07:32;17.30;1.00
10304;DHT22;5197;48.152;8.590;2024-03-22T12:10:00;18.10;1.00
10304;DHT22;5197;48.152;8.590;2024-03-22T12:12:26;17.90;1.00
10304;DHT22;5197;48.152;8.590;2024-03-22T12:14:52;18.60;1.00
10304;DHT22;5197;48.152;8.590;2024-03-22T12:17:43;17.90;1.00
10304;DHT22;5197;48.152;8.590;2024-03-22T12:20:09;18.50;1.00
10304;DHT22;5197;48.152;8.590;2024-03-22T12:22:35;17.90;1.00
10304;DHT22;5197;48.152;8.590;2024-03-22T12:25:02;18.30;1.00
10304;DHT22;5197;48.152;8.590;2024-03-22T12:27:30;17.90;1.00
10304;DHT22;5197;48.152;8.590;2024-03-22T12:29:56;17.80;1.00
10304;DHT22;5197;48.152;8.590;2024-03-22T12:32:22;18.90;1.00
10304;DHT22;5197;48.152;8.590;2024-03-22T12:34:48;18.10;1.00
10304;DHT22;5197;48.152;8.590;2024-03-22T12:37:14;18.30;1.00
10304;DHT22;5197;48.152;8.590;2024-03-22T12:39:40;18.10;1.00
10304;DHT22;5197;48.152;8.590;2024-03-22T12:42:06;18.10;1.00
10304;DHT22;5197;48.152;8.590;2024-03-22T12:44:32;18.20;1.00
10304;DHT22;5197;48.152;8.590;2024-03-22T12:46:58;18.40;1.00
10304;DHT22;5197;48.152;8.590;2024-03-22T12:49:24;18.80;1.00
10304;DHT22;5197;48.152;8.590;2024-03-22T12:51:50;18.70;1.00
10304;DHT22;5197;48.152;8.590;2024-03-22T12:54:16;18.70;1.00
10304;DHT22;5197;48.152;8.590;2024-03-22T12:57:08;18.30;1.00
10304;DHT22;5197;48.152;8.590;2024-03-22T13:00:00;18.00;1.00
10304;DHT22;5197;48.152;8.590;2024-03-22T13:02:52;17.90;1.00
10304;DHT22;5197;48.152;8.590;2024-03-22T13:05:18;18.00;1.00
10304;DHT22;5197;48.152;8.590;2024-03-22T13:07:44;17.90;1.00
10304;DHT22;5197;48.152;8.590;2024-03-22T13:10:10;18.70;1.00
10304;DHT22;5197;48.152;8.590;2024-03-22T13:12:36;18.00;1.00
10304;DHT22;5197;48.152;8.590;2024-03-22T13:15:02;18.50;1.00
10304;DHT22;5197;48.152;8.590;2024-03-22T13:17:28;18.00;1.00
10304;DHT22;5197;48.152;8.590;2024-03-22T13:19:54;18.10;1.00
10304;DHT22;5197;48.152;8.590;2024-03-22T13:22:20;18.30;1.00
10304;DHT22;5197;48.152;8.590;2024-03-22T13:24:46;18.40;1.00
10304;DHT22;5197;48.152;8.590;2024-03-22T13:27:13;18.10;1.00
10304;DHT22;5197;48.152;8.590;2024-03-22T13:29:42;18.70;1.00
10304;DHT22;5197;48.152;8.590;2024-03-22T13:32:09;18.70;1.00
10304;DHT22;5197;48.152;8.590;2024-03-22T13:34:35;18.70;1.00
10304;DHT22;5197;48.152;8.590;2024-03-22T13:37:01;18.60;1.00
10304;DHT22;5197;48.152;8.590;2024-03-22T13:39:27;18.40;1.00
10304;DHT22;5197;48.152;8.590;2024-03-22T13:41:56;19.40;1.00
10304;DHT22;5197;48.152;8.590;2024-03-22T13:44:23;19.20;1.00
10304;DHT22;5197;48.152;8.590;2024-03-22T13:46:50;18.80;1.00
10304;DHT22;5197;48.152;8.590;2024-03-22T13:49:18;18.80;1.00
10304;DHT22;5197;48.152;8.590;2024-03-22T13:51:44;18.70;1.00
10304;DHT22;5197;48.152;8.590;2024-03-22T13:54:12;18.70;1.00
10304;DHT22;5197;48.152;8.590;2024-03-22T13:56:37;18.90;1.00
10304;DHT22;5197;48.152;8.590;2024-03-22T13:59:04;18.90;1.00
10304;DHT22;5197;48.152;8.590;2024-03-22T14:01:36;18.80;1.00
10304;DHT22;5197;48.152;8.590;2024-03-22T14:04:04;19.60;1.00
10304;DHT22;5197;48.152;8.590;2024-03-22T14:06:33;18.40;1.00
10304;DHT22;5197;48.152;8.590;2024-03-22T14:08:59;18.50;1.00
10304;DHT22;5197;48.152;8.590;2024-03-22T14:11:29;19.40;1.00
10304;DHT22;5197;48.152;8.590;2024-03-22T14:13:57;18.60;1.00
10304;DHT22;5197;48.152;8.590;2024-03-22T14:16:23;18.40;1.00
10304;DHT22;5197;48.152;8.590;2024-03-22T14:18:49;18.50;1.00
10304;DHT22;5197;48.152;8.590;2024-03-22T14:21:39;18.40;1.00
10304;DHT22;5197;48.152;8.590;2024-03-22T14:24:06;18.20;1.00
10304;DHT22;5197;48.152;8.590;2024-03-22T14:26:33;18.20;1.00
10304;DHT22;5197;48.152;8.590;2024-03-22T14:28:59;18.10;1.00
10304;DHT22;5197;48.152;8.590;2024-03-22T14:31:25;18.20;1.00
10304;DHT22;5197;48.152;8.590;2024-03-22T14:33:51;18.00;1.00
10304;DHT22;5197;48.152;8.590;2024-03-22T14:36:20;18.10;1.00
10304;DHT22;5197;48.152;8.590;2024-03-22T14:38:46;18.80;1.00
10304;DHT22;5197;48.152;8.590;2024-03-22T14:41:13;18.40;1.00
10304;DHT22;5197;48.152;8.590;2024-03-22T14:43:39;18.50;1.00
10304;DHT22;5197;48.152;8.590;2024-03-22T14:46:04;18.00;1.00
10304;DHT22;5197;48.152;8.590;2024-03-22T14:48:30;17.90;1.00
10304;DHT22;5197;48.152;8.590;2024-03-22T14:50:57;18.80;1.00
10304;DHT22;5197;48.152;8.590;2024-03-22T14:53:24;17.80;1.00
10304;DHT22;5197;48.152;8.590;2024-03-22T14:56:00;17.80;1.00
10304;DHT22;5197;48.152;8.590;2024-03-22T14:58:31;17.80;1.00
10304;DHT22;5197;48.152;8.590;2024-03-22T15:01:01;17.70;1.00
10304;DHT22;5197;48.152;8.590;2024-03-22T15:03:28;17.90;1.00
10304;DHT22;5197;48.152;8.590;2024-03-22T15:05:56;17.80;1.00
10304;DHT22;5197;48.152;8.590;2024-03-22T15:08:22;17.80;1.00
10304;DHT22;5197;48.152;8.590;2024-03-22T15:10:49;18.10;1.00
10304;DHT22;5197;48.152;8.590;2024-03-22T15:13:16;18.30;1.00
10304;DHT22;5197;48.152;8.590;2024-03-22T15:15:44;18.60;1.00
10304;DHT22;5197;48.152;8.590;2024-03-22T15:18:28;18.50;1.00
10304;DHT22;5197;48.152;8.590;2024-03-22T15:20:54;19.30;1.00
10304;DHT22;5197;48.152;8.590;2024-03-22T15:23:20;18.50;1.00
10304;DHT22;5197;48.152;8.590;2024-03-22T15:25:47;18.60;1.00
10304;DHT22;5197;48.152;8.590;2024-03-22T15:28:13;18.60;1.00
10304;DHT22;5197;48.152;8.590;2024-03-22T15:30:39;19.50;1.00
10304;DHT22;5197;48.152;8.590;2024-03-22T15:33:05;18.80;1.00
10304;DHT22;5197;48.152;8.590;2024-03-22T15:35:32;18.80;1.00
10304;DHT22;5197;48.152;8.590;2024-03-22T15:37:58;18.50;1.00
10304;DHT22;5197;48.152;8.590;2024-03-22T15:40:31;18.50;1.00
10304;DHT22;5197;48.152;8.590;2024-03-22T15:42:58;18.50;1.00
10304;DHT22;5197;48.152;8.590;2024-03-22T15:45:26;18.70;1.00
10304;DHT22;5197;48.152;8.590;2024-03-22T15:47:52;18.30;1.00
10304;DHT22;5197;48.152;8.590;2024-03-22T15:50:18;18.90;1.00
10304;DHT22;5197;48.152;8.590;2024-03-22T15:52:45;18.40;1.00
10304;DHT22;5197;48.152;8.590;2024-03-22T15:55:11;19.00;1.00
10304;DHT22;5197;48.152;8.590;2024-03-22T15:57:37;18.20;1.00
10304;DHT22;5197;48.152;8.590;2024-03-22T16:00:04;18.10;1.00
10304;DHT22;5197;48.152;8.590;2024-03-22T16:02:30;18.10;1.00
10304;DHT22;5197;48.152;8.590;2024-03-22T16:04:56;18.00;1.00
10304;DHT22;5197;48.152;8.590;2024-03-22T16:07:22;18.00;1.00
10304;DHT22;5197;48.152;8.590;2024-03-22T16:09:48;16.80;1.00